sensor_id;sensor_type;location;lat;lon;timestamp;temperature;humidity
792;DHT22;379;49.022;12.148;2023-08-01T00:01:49;16.30;99.90
792;DHT22;379;49.022;12.148;2023-08-01T00:04:15;16.30;99.90
792;DHT22;379;49.022;12.148;2023-08-01T00:06:42;16.30;99.90
792;DHT22;379;49.022;12.148;2023-08-01T00:09:09;16.30;99.90
792;DHT22;379;49.022;12.148;2023-08-01T00:11:37;16.20;99.90
792;DHT22;379;49.022;12.148;2023-08-01T00:14:04;16.20;99.90
792;DHT22;379;49.022;12.148;2023-08-01T00:16:30;16.30;99.90
792;DHT22;379;49.022;12.148;2023-08-01T00:18:57;16.30;99.90
792;DHT22;379;49.022;12.148;2023-08-01T00:21:24;16.30;99.90
792;DHT22;379;49.022;12.148;2023-08-01T00:23:51;16.30;99.90
792;DHT22;379;49.022;12.148;2023-08-01T00:26:18;16.30;99.90
792;DHT22;379;49.022;12.148;2023-08-01T00:28:46;16.30;99.90
792;DHT22;379;49.022;12.148;2023-08-01T00:31:13;16.30;99.90
792;DHT22;379;49.022;12.148;2023-08-01T00:33:39;16.30;99.90
792;DHT22;379;49.022;12.148;2023-08-01T00:36:06;16.30;99.90
792;DHT22;379;49.022;12.148;2023-08-01T00:38:35;16.30;99.90
792;DHT22;379;49.022;12.148;2023-08-01T00:41:02;16.20;99.90
792;DHT22;379;49.022;12.148;2023-08-01T00:43:28;16.20;99.90
792;DHT22;379;49.022;12.148;2023-08-01T00:46:00;16.20;99.90
792;DHT22;379;49.022;12.148;2023-08-01T00:48:28;16.20;99.90
792;DHT22;379;49.022;12.148;2023-08-01T00:50:54;16.20;99.90
792;DHT22;379;49.022;12.148;2023-08-01T00:53:22;16.20;99.90
792;DHT22;379;49.022;12.148;2023-08-01T00:55:49;16.20;99.90
792;DHT22;379;49.022;12.148;2023-08-01T00:58:17;16.20;99.90
792;DHT22;379;49.022;12.148;2023-08-01T01:00:44;16.20;99.90
792;DHT22;379;49.022;12.148;2023-08-01T01:03:13;16.20;99.90
792;DHT22;379;49.022;12.148;2023-08-01T01:05:45;16.20;99.90
792;DHT22;379;49.022;12.148;2023-08-01T01:08:14;16.20;99.90
792;DHT22;379;49.022;12.148;2023-08-01T01:10:41;16.20;99.90
792;DHT22;379;49.022;12.148;2023-08-01T01:13:07;16.20;99.90
792;DHT22;379;49.022;12.148;2023-08-01T01:15:34;16.20;99.90
792;DHT22;379;49.022;12.148;2023-08-01T01:18:01;16.20;99.90
792;DHT22;379;49.022;12.148;2023-08-01T01:20:33;16.20;99.90
792;DHT22;379;49.022;12.148;2023-08-01T01:23:00;16.20;99.90
792;DHT22;379;49.022;12.148;2023-08-01T01:25:29;16.20;99.90
792;DHT22;379;49.022;12.148;2023-08-01T01:27:57;16.30;99.90
792;DHT22;379;49.022;12.148;2023-08-01T01:30:24;16.30;99.90
792;DHT22;379;49.022;12.148;2023-08-01T01:32:52;16.30;99.90
792;DHT22;379;49.022;12.148;2023-08-01T01:35:19;16.30;99.90
792;DHT22;379;49.022;12.148;2023-08-01T01:37:47;16.30;99.90
792;DHT22;379;49.022;12.148;2023-08-01T01:40:14;16.30;99.90
792;DHT22;379;49.022;12.148;2023-08-01T01:42:41;16.30;99.90
792;DHT22;379;49.022;12.148;2023-08-01T01:45:08;16.20;99.90
792;DHT22;379;49.022;12.148;2023-08-01T01:47:35;16.20;99.90
792;DHT22;379;49.022;12.148;2023-08-01T01:50:01;16.20;99.90
792;DHT22;379;49.022;12.148;2023-08-01T01:52:28;16.20;99.90
792;DHT22;379;49.022;12.148;2023-08-01T01:54:56;16.30;99.90
792;DHT22;379;49.022;12.148;2023-08-01T01:57:23;16.20;99.90
792;DHT22;379;49.022;12.148;2023-08-01T01:59:50;16.20;99.90
792;DHT22;379;49.022;12.148;2023-08-01T02:02:16;16.20;99.90
792;DHT22;379;49.022;12.148;2023-08-01T02:04:46;16.20;99.90
792;DHT22;379;49.022;12.148;2023-08-01T02:07:13;16.10;99.90
792;DHT22;379;49.022;12.148;2023-08-01T02:09:40;16.10;99.90
792;DHT22;379;49.022;12.148;2023-08-01T02:12:09;16.10;99.90
792;DHT22;379;49.022;12.148;2023-08-01T02:14:39;16.20;99.90
792;DHT22;379;49.022;12.148;2023-08-01T02:17:06;16.10;99.90
792;DHT22;379;49.022;12.148;2023-08-01T02:19:33;16.20;99.90
792;DHT22;379;49.022;12.148;2023-08-01T02:21:59;16.20;99.90
792;DHT22;379;49.022;12.148;2023-08-01T02:24:26;16.20;99.90
792;DHT22;379;49.022;12.148;2023-08-01T02:26:53;16.20;99.90
792;DHT22;379;49.022;12.148;2023-08-01T02:29:22;16.20;99.90
792;DHT22;379;49.022;12.148;2023-08-01T02:31:48;16.20;99.90
792;DHT22;379;49.022;12.148;2023-08-01T02:34:15;16.10;99.90
792;DHT22;379;49.022;12.148;2023-08-01T02:36:42;16.10;99.90
792;DHT22;379;49.022;12.148;2023-08-01T02:39:08;16.10;99.90
792;DHT22;379;49.022;12.148;2023-08-01T02:41:35;16.10;99.90
792;DHT22;379;49.022;12.148;2023-08-01T02:44:02;16.10;99.90
792;DHT22;379;49.022;12.148;2023-08-01T02:46:30;16.10;99.90
792;DHT22;379;49.022;12.148;2023-08-01T02:48:57;16.10;99.90
792;DHT22;379;49.022;12.148;2023-08-01T02:51:23;16.00;99.90
792;DHT22;379;49.022;12.148;2023-08-01T02:53:50;16.00;99.90
792;DHT22;379;49.022;12.148;2023-08-01T02:56:17;15.90;99.90
792;DHT22;379;49.022;12.148;2023-08-01T02:58:44;15.90;99.90
792;DHT22;379;49.022;12.148;2023-08-01T03:01:10;15.90;99.90
792;DHT22;379;49.022;12.148;2023-08-01T03:03:40;15.80;99.90
792;DHT22;379;49.022;12.148;2023-08-01T03:06:07;15.80;99.90
792;DHT22;379;49.022;12.148;2023-08-01T03:08:34;15.90;99.90
792;DHT22;379;49.022;12.148;2023-08-01T03:11:01;15.90;99.90
792;DHT22;379;49.022;12.148;2023-08-01T03:13:28;15.90;99.90
792;DHT22;379;49.022;12.148;2023-08-01T03:15:54;15.90;99.90
792;DHT22;379;49.022;12.148;2023-08-01T03:18:21;15.90;99.90
792;DHT22;379;49.022;12.148;2023-08-01T03:20:49;15.90;99.90
792;DHT22;379;49.022;12.148;2023-08-01T03:23:17;16.00;99.90
792;DHT22;379;49.022;12.148;2023-08-01T03:25:43;16.00;99.90
792;DHT22;379;49.022;12.148;2023-08-01T03:28:10;16.00;99.90
792;DHT22;379;49.022;12.148;2023-08-01T03:30:37;16.00;99.90
792;DHT22;379;49.022;12.148;2023-08-01T03:33:04;16.00;99.90
792;DHT22;379;49.022;12.148;2023-08-01T03:35:30;16.00;99.90
792;DHT22;379;49.022;12.148;2023-08-01T03:37:59;16.00;99.90
792;DHT22;379;49.022;12.148;2023-08-01T03:40:25;16.00;99.90
792;DHT22;379;49.022;12.148;2023-08-01T03:42:52;16.00;99.90
792;DHT22;379;49.022;12.148;2023-08-01T03:45:19;16.00;99.90
792;DHT22;379;49.022;12.148;2023-08-01T03:47:46;16.00;99.90
792;DHT22;379;49.022;12.148;2023-08-01T03:50:12;16.10;99.90
792;DHT22;379;49.022;12.148;2023-08-01T03:52:40;16.10;99.90
792;DHT22;379;49.022;12.148;2023-08-01T03:55:08;16.10;99.90
792;DHT22;379;49.022;12.148;2023-08-01T03:57:35;16.10;99.90
792;DHT22;379;49.022;12.148;2023-08-01T04:00:05;16.10;99.90
792;DHT22;379;49.022;12.148;2023-08-01T04:02:32;16.10;99.90
792;DHT22;379;49.022;12.148;2023-08-01T04:04:58;16.10;99.90
792;DHT22;379;49.022;12.148;2023-08-01T04:07:25;16.10;99.90
792;DHT22;379;49.022;12.148;2023-08-01T04:09:52;16.10;99.90
792;DHT22;379;49.022;12.148;2023-08-01T04:12:20;16.10;99.90
792;DHT22;379;49.022;12.148;2023-08-01T04:14:47;16.10;99.90
792;DHT22;379;49.022;12.148;2023-08-01T04:17:14;16.10;99.90
792;DHT22;379;49.022;12.148;2023-08-01T04:19:41;16.10;99.90
792;DHT22;379;49.022;12.148;2023-08-01T04:22:07;16.10;99.90
792;DHT22;379;49.022;12.148;2023-08-01T04:24:34;16.10;99.90
792;DHT22;379;49.022;12.148;2023-08-01T04:27:01;16.10;99.90
792;DHT22;379;49.022;12.148;2023-08-01T04:29:29;16.00;99.90
792;DHT22;379;49.022;12.148;2023-08-01T04:31:56;16.00;99.90
792;DHT22;379;49.022;12.148;2023-08-01T04:34:23;15.90;99.90
792;DHT22;379;49.022;12.148;2023-08-01T04:36:49;15.90;99.90
792;DHT22;379;49.022;12.148;2023-08-01T04:39:16;15.90;99.90
792;DHT22;379;49.022;12.148;2023-08-01T04:41:43;15.90;99.90
792;DHT22;379;49.022;12.148;2023-08-01T04:44:10;15.90;99.90
792;DHT22;379;49.022;12.148;2023-08-01T04:46:38;15.90;99.90
792;DHT22;379;49.022;12.148;2023-08-01T04:49:04;15.90;99.90
792;DHT22;379;49.022;12.148;2023-08-01T04:51:31;15.90;99.90
792;DHT22;379;49.022;12.148;2023-08-01T04:53:58;15.90;99.90
792;DHT22;379;49.022;12.148;2023-08-01T04:56:24;15.90;99.90
792;DHT22;379;49.022;12.148;2023-08-01T04:58:51;15.90;99.90
792;DHT22;379;49.022;12.148;2023-08-01T05:01:18;15.90;99.90
792;DHT22;379;49.022;12.148;2023-08-01T05:03:46;15.90;99.90
792;DHT22;379;49.022;12.148;2023-08-01T05:06:13;15.90;99.90
792;DHT22;379;49.022;12.148;2023-08-01T05:08:39;15.90;99.90
792;DHT22;379;49.022;12.148;2023-08-01T05:11:06;15.90;99.90
792;DHT22;379;49.022;12.148;2023-08-01T05:13:33;15.90;99.90
792;DHT22;379;49.022;12.148;2023-08-01T05:15:59;15.90;99.90
792;DHT22;379;49.022;12.148;2023-08-01T05:18:26;15.90;99.90
792;DHT22;379;49.022;12.148;2023-08-01T05:20:54;15.90;99.90
792;DHT22;379;49.022;12.148;2023-08-01T05:23:21;15.90;99.90
792;DHT22;379;49.022;12.148;2023-08-01T05:25:48;15.90;99.90
792;DHT22;379;49.022;12.148;2023-08-01T05:28:14;15.90;99.90
792;DHT22;379;49.022;12.148;2023-08-01T05:30:41;15.90;99.90
792;DHT22;379;49.022;12.148;2023-08-01T05:33:08;15.90;99.90
792;DHT22;379;49.022;12.148;2023-08-01T05:35:35;15.90;99.90
792;DHT22;379;49.022;12.148;2023-08-01T05:38:03;15.90;99.90
792;DHT22;379;49.022;12.148;2023-08-01T05:40:29;15.90;99.90
792;DHT22;379;49.022;12.148;2023-08-01T05:42:56;16.00;99.90
792;DHT22;379;49.022;12.148;2023-08-01T05:45:23;16.00;99.90
792;DHT22;379;49.022;12.148;2023-08-01T05:47:49;16.00;99.90
792;DHT22;379;49.022;12.148;2023-08-01T05:50:16;15.90;99.90
792;DHT22;379;49.022;12.148;2023-08-01T05:52:43;15.90;99.90
792;DHT22;379;49.022;12.148;2023-08-01T05:55:11;15.90;99.90
792;DHT22;379;49.022;12.148;2023-08-01T05:57:38;16.00;99.90
792;DHT22;379;49.022;12.148;2023-08-01T06:00:06;16.00;99.90
792;DHT22;379;49.022;12.148;2023-08-01T06:02:33;16.10;99.90
792;DHT22;379;49.022;12.148;2023-08-01T06:04:59;16.20;99.90
792;DHT22;379;49.022;12.148;2023-08-01T06:07:26;16.20;99.90
792;DHT22;379;49.022;12.148;2023-08-01T06:09:53;16.30;99.90
792;DHT22;379;49.022;12.148;2023-08-01T06:12:21;16.40;99.90
792;DHT22;379;49.022;12.148;2023-08-01T06:14:48;16.50;99.90
792;DHT22;379;49.022;12.148;2023-08-01T06:17:14;16.60;99.90
792;DHT22;379;49.022;12.148;2023-08-01T06:19:41;16.60;99.90
792;DHT22;379;49.022;12.148;2023-08-01T06:22:08;16.70;99.90
792;DHT22;379;49.022;12.148;2023-08-01T06:24:35;16.70;99.90
792;DHT22;379;49.022;12.148;2023-08-01T06:27:02;16.80;99.90
792;DHT22;379;49.022;12.148;2023-08-01T06:29:30;16.90;99.90
792;DHT22;379;49.022;12.148;2023-08-01T06:31:57;16.90;99.90
792;DHT22;379;49.022;12.148;2023-08-01T06:34:24;17.00;99.90
792;DHT22;379;49.022;12.148;2023-08-01T06:36:51;17.00;99.90
792;DHT22;379;49.022;12.148;2023-08-01T06:39:18;17.00;99.90
792;DHT22;379;49.022;12.148;2023-08-01T06:41:44;17.00;99.90
792;DHT22;379;49.022;12.148;2023-08-01T06:44:11;17.00;99.90
792;DHT22;379;49.022;12.148;2023-08-01T06:46:39;16.90;99.90
792;DHT22;379;49.022;12.148;2023-08-01T06:49:06;16.90;99.90
792;DHT22;379;49.022;12.148;2023-08-01T06:51:32;16.80;99.90
792;DHT22;379;49.022;12.148;2023-08-01T06:53:59;16.80;99.90
792;DHT22;379;49.022;12.148;2023-08-01T06:56:26;16.80;99.90
792;DHT22;379;49.022;12.148;2023-08-01T06:58:53;16.80;99.90
792;DHT22;379;49.022;12.148;2023-08-01T07:01:19;16.90;99.90
792;DHT22;379;49.022;12.148;2023-08-01T07:03:49;16.90;99.90
792;DHT22;379;49.022;12.148;2023-08-01T07:06:17;16.90;99.90
792;DHT22;379;49.022;12.148;2023-08-01T07:08:44;17.00;99.90
792;DHT22;379;49.022;12.148;2023-08-01T07:11:11;17.10;99.90
792;DHT22;379;49.022;12.148;2023-08-01T07:13:38;17.10;99.90
792;DHT22;379;49.022;12.148;2023-08-01T07:16:04;17.20;99.90
792;DHT22;379;49.022;12.148;2023-08-01T07:18:31;17.40;99.90
792;DHT22;379;49.022;12.148;2023-08-01T07:21:03;17.50;99.90
792;DHT22;379;49.022;12.148;2023-08-01T07:23:30;17.60;99.90
792;DHT22;379;49.022;12.148;2023-08-01T07:25:57;17.70;99.90
792;DHT22;379;49.022;12.148;2023-08-01T07:28:24;17.80;99.90
792;DHT22;379;49.022;12.148;2023-08-01T07:30:58;17.90;99.90
792;DHT22;379;49.022;12.148;2023-08-01T07:33:24;17.90;99.90
792;DHT22;379;49.022;12.148;2023-08-01T07:35:51;18.00;99.90
792;DHT22;379;49.022;12.148;2023-08-01T07:38:19;18.00;99.90
792;DHT22;379;49.022;12.148;2023-08-01T07:40:46;18.10;99.90
792;DHT22;379;49.022;12.148;2023-08-01T07:43:13;18.20;99.90
792;DHT22;379;49.022;12.148;2023-08-01T07:45:39;18.30;99.90
792;DHT22;379;49.022;12.148;2023-08-01T07:48:06;18.40;99.90
792;DHT22;379;49.022;12.148;2023-08-01T07:50:33;18.60;99.90
792;DHT22;379;49.022;12.148;2023-08-01T07:53:00;18.90;99.90
792;DHT22;379;49.022;12.148;2023-08-01T07:55:28;19.30;99.90
792;DHT22;379;49.022;12.148;2023-08-01T07:57:54;19.60;99.90
792;DHT22;379;49.022;12.148;2023-08-01T08:00:21;19.90;99.90
792;DHT22;379;49.022;12.148;2023-08-01T08:02:48;20.20;99.90
792;DHT22;379;49.022;12.148;2023-08-01T08:05:15;20.30;99.90
792;DHT22;379;49.022;12.148;2023-08-01T08:07:41;20.30;99.90
792;DHT22;379;49.022;12.148;2023-08-01T08:10:08;20.20;99.90
792;DHT22;379;49.022;12.148;2023-08-01T08:12:36;20.00;99.90
792;DHT22;379;49.022;12.148;2023-08-01T08:15:04;19.90;99.90
792;DHT22;379;49.022;12.148;2023-08-01T08:17:30;19.70;99.90
792;DHT22;379;49.022;12.148;2023-08-01T08:19:57;19.50;99.90
792;DHT22;379;49.022;12.148;2023-08-01T08:22:24;19.40;99.90
792;DHT22;379;49.022;12.148;2023-08-01T08:24:50;19.40;99.90
792;DHT22;379;49.022;12.148;2023-08-01T08:27:17;19.30;99.90
792;DHT22;379;49.022;12.148;2023-08-01T08:29:45;19.20;99.90
792;DHT22;379;49.022;12.148;2023-08-01T08:32:12;19.00;99.90
792;DHT22;379;49.022;12.148;2023-08-01T08:34:39;18.80;99.90
792;DHT22;379;49.022;12.148;2023-08-01T08:37:05;18.60;99.90
792;DHT22;379;49.022;12.148;2023-08-01T08:39:32;18.50;99.90
792;DHT22;379;49.022;12.148;2023-08-01T08:41:59;18.40;99.90
792;DHT22;379;49.022;12.148;2023-08-01T08:44:26;18.40;99.90
792;DHT22;379;49.022;12.148;2023-08-01T08:47:02;18.50;99.90
792;DHT22;379;49.022;12.148;2023-08-01T08:49:29;18.60;99.90
792;DHT22;379;49.022;12.148;2023-08-01T08:51:58;18.70;99.90
792;DHT22;379;49.022;12.148;2023-08-01T08:54:26;18.80;99.90
792;DHT22;379;49.022;12.148;2023-08-01T08:56:53;18.90;99.90
792;DHT22;379;49.022;12.148;2023-08-01T08:59:21;18.90;99.90
792;DHT22;379;49.022;12.148;2023-08-01T09:01:48;18.80;99.90
792;DHT22;379;49.022;12.148;2023-08-01T09:04:16;18.80;99.90
792;DHT22;379;49.022;12.148;2023-08-01T09:06:45;18.80;99.90
792;DHT22;379;49.022;12.148;2023-08-01T09:09:13;18.80;99.90
792;DHT22;379;49.022;12.148;2023-08-01T09:11:45;18.70;99.90
792;DHT22;379;49.022;12.148;2023-08-01T09:14:13;18.70;99.90
792;DHT22;379;49.022;12.148;2023-08-01T09:16:40;18.60;99.90
792;DHT22;379;49.022;12.148;2023-08-01T09:19:08;18.60;99.90
792;DHT22;379;49.022;12.148;2023-08-01T09:21:38;18.50;99.90
792;DHT22;379;49.022;12.148;2023-08-01T09:24:08;18.50;99.90
792;DHT22;379;49.022;12.148;2023-08-01T09:26:36;18.50;99.90
792;DHT22;379;49.022;12.148;2023-08-01T09:29:03;18.60;99.90
792;DHT22;379;49.022;12.148;2023-08-01T09:31:31;18.60;99.90
792;DHT22;379;49.022;12.148;2023-08-01T09:33:59;18.60;99.90
792;DHT22;379;49.022;12.148;2023-08-01T09:36:26;18.60;99.90
792;DHT22;379;49.022;12.148;2023-08-01T09:38:59;18.60;99.90
792;DHT22;379;49.022;12.148;2023-08-01T09:41:26;18.60;99.90
792;DHT22;379;49.022;12.148;2023-08-01T09:43:53;18.60;99.90
792;DHT22;379;49.022;12.148;2023-08-01T09:46:20;18.70;99.90
792;DHT22;379;49.022;12.148;2023-08-01T09:48:47;18.70;99.90
792;DHT22;379;49.022;12.148;2023-08-01T09:51:14;18.80;99.90
792;DHT22;379;49.022;12.148;2023-08-01T09:53:50;18.80;99.90
792;DHT22;379;49.022;12.148;2023-08-01T09:56:21;18.80;99.90
792;DHT22;379;49.022;12.148;2023-08-01T09:58:49;18.80;99.90
792;DHT22;379;49.022;12.148;2023-08-01T10:01:17;18.70;99.90
792;DHT22;379;49.022;12.148;2023-08-01T10:03:46;18.80;99.90
792;DHT22;379;49.022;12.148;2023-08-01T10:06:17;18.90;99.90
792;DHT22;379;49.022;12.148;2023-08-01T10:08:45;18.90;99.90
792;DHT22;379;49.022;12.148;2023-08-01T10:11:12;19.10;99.90
792;DHT22;379;49.022;12.148;2023-08-01T10:13:41;19.40;99.90
792;DHT22;379;49.022;12.148;2023-08-01T10:16:08;19.60;99.90
792;DHT22;379;49.022;12.148;2023-08-01T10:18:36;19.90;99.90
792;DHT22;379;49.022;12.148;2023-08-01T10:21:04;20.00;99.90
792;DHT22;379;49.022;12.148;2023-08-01T10:23:32;20.10;99.90
792;DHT22;379;49.022;12.148;2023-08-01T10:26:00;20.10;99.90
792;DHT22;379;49.022;12.148;2023-08-01T10:28:31;20.20;99.90
792;DHT22;379;49.022;12.148;2023-08-01T10:31:11;20.30;99.90
792;DHT22;379;49.022;12.148;2023-08-01T10:33:38;20.40;99.90
792;DHT22;379;49.022;12.148;2023-08-01T10:36:15;20.50;99.90
792;DHT22;379;49.022;12.148;2023-08-01T10:38:49;20.40;99.90
792;DHT22;379;49.022;12.148;2023-08-01T10:41:20;20.20;99.90
792;DHT22;379;49.022;12.148;2023-08-01T10:43:48;20.10;99.90
792;DHT22;379;49.022;12.148;2023-08-01T10:46:16;20.00;99.90
792;DHT22;379;49.022;12.148;2023-08-01T10:48:50;20.10;99.90
792;DHT22;379;49.022;12.148;2023-08-01T10:51:17;20.20;99.90
792;DHT22;379;49.022;12.148;2023-08-01T10:53:44;20.40;99.90
792;DHT22;379;49.022;12.148;2023-08-01T10:56:17;20.70;99.90
792;DHT22;379;49.022;12.148;2023-08-01T10:58:44;20.90;99.90
792;DHT22;379;49.022;12.148;2023-08-01T11:01:11;20.90;99.90
792;DHT22;379;49.022;12.148;2023-08-01T11:03:40;20.90;99.90
792;DHT22;379;49.022;12.148;2023-08-01T11:06:07;20.80;99.90
792;DHT22;379;49.022;12.148;2023-08-01T11:08:35;20.70;99.90
792;DHT22;379;49.022;12.148;2023-08-01T11:11:03;20.80;99.90
792;DHT22;379;49.022;12.148;2023-08-01T11:13:30;21.10;99.90
792;DHT22;379;49.022;12.148;2023-08-01T11:16:01;21.50;99.90
792;DHT22;379;49.022;12.148;2023-08-01T11:18:28;21.90;99.90
792;DHT22;379;49.022;12.148;2023-08-01T11:20:56;22.30;99.90
792;DHT22;379;49.022;12.148;2023-08-01T11:23:28;22.30;99.90
792;DHT22;379;49.022;12.148;2023-08-01T11:25:55;22.30;99.90
792;DHT22;379;49.022;12.148;2023-08-01T11:28:22;22.20;99.90
792;DHT22;379;49.022;12.148;2023-08-01T11:30:50;21.90;99.90
792;DHT22;379;49.022;12.148;2023-08-01T11:33:19;21.70;99.90
792;DHT22;379;49.022;12.148;2023-08-01T11:35:50;21.50;99.90
792;DHT22;379;49.022;12.148;2023-08-01T11:38:21;21.20;99.90
792;DHT22;379;49.022;12.148;2023-08-01T11:40:48;20.90;99.90
792;DHT22;379;49.022;12.148;2023-08-01T11:43:16;20.60;99.90
792;DHT22;379;49.022;12.148;2023-08-01T11:45:50;20.20;99.90
792;DHT22;379;49.022;12.148;2023-08-01T11:48:17;19.90;99.90
792;DHT22;379;49.022;12.148;2023-08-01T11:50:44;19.60;99.90
792;DHT22;379;49.022;12.148;2023-08-01T11:53:19;19.50;99.90
792;DHT22;379;49.022;12.148;2023-08-01T11:55:47;19.40;99.90
792;DHT22;379;49.022;12.148;2023-08-01T11:58:14;19.60;99.90
792;DHT22;379;49.022;12.148;2023-08-01T12:00:41;20.00;99.90
792;DHT22;379;49.022;12.148;2023-08-01T12:03:10;20.40;99.90
792;DHT22;379;49.022;12.148;2023-08-01T12:05:39;20.70;99.90
792;DHT22;379;49.022;12.148;2023-08-01T12:08:12;20.80;99.90
792;DHT22;379;49.022;12.148;2023-08-01T12:10:41;20.80;99.90
792;DHT22;379;49.022;12.148;2023-08-01T12:13:19;21.00;99.90
792;DHT22;379;49.022;12.148;2023-08-01T12:15:46;21.30;99.90
792;DHT22;379;49.022;12.148;2023-08-01T12:18:20;21.50;99.90
792;DHT22;379;49.022;12.148;2023-08-01T12:20:46;21.60;99.90
792;DHT22;379;49.022;12.148;2023-08-01T12:23:13;21.50;99.90
792;DHT22;379;49.022;12.148;2023-08-01T12:25:41;21.30;99.90
792;DHT22;379;49.022;12.148;2023-08-01T12:28:08;21.10;99.90
792;DHT22;379;49.022;12.148;2023-08-01T12:30:35;21.00;99.90
792;DHT22;379;49.022;12.148;2023-08-01T12:33:01;20.90;99.90
792;DHT22;379;49.022;12.148;2023-08-01T12:35:28;21.00;99.90
792;DHT22;379;49.022;12.148;2023-08-01T12:37:55;21.10;99.90
792;DHT22;379;49.022;12.148;2023-08-01T12:40:22;21.20;99.90
792;DHT22;379;49.022;12.148;2023-08-01T12:42:50;21.40;99.90
792;DHT22;379;49.022;12.148;2023-08-01T12:45:16;21.60;99.90
792;DHT22;379;49.022;12.148;2023-08-01T12:47:43;21.80;99.60
792;DHT22;379;49.022;12.148;2023-08-01T12:50:10;21.90;99.50
792;DHT22;379;49.022;12.148;2023-08-01T12:52:37;21.90;98.70
792;DHT22;379;49.022;12.148;2023-08-01T12:55:04;21.90;98.40
792;DHT22;379;49.022;12.148;2023-08-01T12:57:31;21.90;98.10
792;DHT22;379;49.022;12.148;2023-08-01T12:59:59;22.10;98.20
792;DHT22;379;49.022;12.148;2023-08-01T13:02:26;22.40;98.10
792;DHT22;379;49.022;12.148;2023-08-01T13:04:53;22.70;97.50
792;DHT22;379;49.022;12.148;2023-08-01T13:07:20;23.00;96.70
792;DHT22;379;49.022;12.148;2023-08-01T13:09:47;23.20;96.10
792;DHT22;379;49.022;12.148;2023-08-01T13:12:13;23.30;95.00
792;DHT22;379;49.022;12.148;2023-08-01T13:14:40;23.00;93.80
792;DHT22;379;49.022;12.148;2023-08-01T13:17:08;22.60;93.70
792;DHT22;379;49.022;12.148;2023-08-01T13:19:35;22.50;94.40
792;DHT22;379;49.022;12.148;2023-08-01T13:22:02;22.70;94.50
792;DHT22;379;49.022;12.148;2023-08-01T13:24:29;22.80;94.20
792;DHT22;379;49.022;12.148;2023-08-01T13:26:56;22.70;93.80
792;DHT22;379;49.022;12.148;2023-08-01T13:29:22;22.60;93.90
792;DHT22;379;49.022;12.148;2023-08-01T13:31:49;22.60;94.00
792;DHT22;379;49.022;12.148;2023-08-01T13:34:17;22.60;94.20
792;DHT22;379;49.022;12.148;2023-08-01T13:36:44;22.60;94.00
792;DHT22;379;49.022;12.148;2023-08-01T13:39:11;22.70;94.00
792;DHT22;379;49.022;12.148;2023-08-01T13:41:37;22.70;93.80
792;DHT22;379;49.022;12.148;2023-08-01T13:44:04;22.60;93.00
792;DHT22;379;49.022;12.148;2023-08-01T13:46:31;22.30;92.80
792;DHT22;379;49.022;12.148;2023-08-01T13:48:58;22.10;92.20
792;DHT22;379;49.022;12.148;2023-08-01T13:51:26;22.00;92.60
792;DHT22;379;49.022;12.148;2023-08-01T13:53:52;22.50;93.10
792;DHT22;379;49.022;12.148;2023-08-01T13:56:20;22.70;91.90
792;DHT22;379;49.022;12.148;2023-08-01T13:58:47;22.70;92.20
792;DHT22;379;49.022;12.148;2023-08-01T14:01:14;22.90;92.60
792;DHT22;379;49.022;12.148;2023-08-01T14:03:41;23.10;91.80
792;DHT22;379;49.022;12.148;2023-08-01T14:06:09;23.20;91.00
792;DHT22;379;49.022;12.148;2023-08-01T14:08:38;23.10;90.50
792;DHT22;379;49.022;12.148;2023-08-01T14:11:06;23.10;90.70
792;DHT22;379;49.022;12.148;2023-08-01T14:13:34;23.20;90.10
792;DHT22;379;49.022;12.148;2023-08-01T14:16:02;23.40;89.90
792;DHT22;379;49.022;12.148;2023-08-01T14:18:29;23.30;89.20
792;DHT22;379;49.022;12.148;2023-08-01T14:20:56;23.00;89.40
792;DHT22;379;49.022;12.148;2023-08-01T14:23:22;22.70;90.10
792;DHT22;379;49.022;12.148;2023-08-01T14:25:50;22.60;90.00
792;DHT22;379;49.022;12.148;2023-08-01T14:28:17;22.60;90.30
792;DHT22;379;49.022;12.148;2023-08-01T14:30:44;22.70;89.80
792;DHT22;379;49.022;12.148;2023-08-01T14:33:11;22.60;89.30
792;DHT22;379;49.022;12.148;2023-08-01T14:35:38;22.60;89.90
792;DHT22;379;49.022;12.148;2023-08-01T14:38:05;22.80;89.90
792;DHT22;379;49.022;12.148;2023-08-01T14:40:33;23.00;88.20
792;DHT22;379;49.022;12.148;2023-08-01T14:43:02;23.10;87.00
792;DHT22;379;49.022;12.148;2023-08-01T14:45:29;23.20;84.80
792;DHT22;379;49.022;12.148;2023-08-01T14:47:56;23.10;86.20
792;DHT22;379;49.022;12.148;2023-08-01T14:50:23;23.00;87.00
792;DHT22;379;49.022;12.148;2023-08-01T14:52:50;22.80;87.00
792;DHT22;379;49.022;12.148;2023-08-01T14:55:16;22.40;84.90
792;DHT22;379;49.022;12.148;2023-08-01T14:57:43;21.60;79.90
792;DHT22;379;49.022;12.148;2023-08-01T15:00:12;20.10;83.20
792;DHT22;379;49.022;12.148;2023-08-01T15:02:39;19.00;88.00
792;DHT22;379;49.022;12.148;2023-08-01T15:05:06;18.30;91.10
792;DHT22;379;49.022;12.148;2023-08-01T15:07:33;17.60;93.30
792;DHT22;379;49.022;12.148;2023-08-01T15:10:00;17.20;95.90
792;DHT22;379;49.022;12.148;2023-08-01T15:12:27;17.00;98.50
792;DHT22;379;49.022;12.148;2023-08-01T15:14:54;17.20;99.90
792;DHT22;379;49.022;12.148;2023-08-01T15:17:22;17.50;99.90
792;DHT22;379;49.022;12.148;2023-08-01T15:19:49;17.80;99.90
792;DHT22;379;49.022;12.148;2023-08-01T15:22:16;18.00;99.90
792;DHT22;379;49.022;12.148;2023-08-01T15:24:43;18.30;99.90
792;DHT22;379;49.022;12.148;2023-08-01T15:27:10;18.60;99.90
792;DHT22;379;49.022;12.148;2023-08-01T15:29:37;18.90;99.90
792;DHT22;379;49.022;12.148;2023-08-01T15:32:05;19.10;99.50
792;DHT22;379;49.022;12.148;2023-08-01T15:34:33;19.30;98.70
792;DHT22;379;49.022;12.148;2023-08-01T15:37:00;19.50;97.20
792;DHT22;379;49.022;12.148;2023-08-01T15:39:27;19.60;96.80
792;DHT22;379;49.022;12.148;2023-08-01T15:41:53;19.90;96.20
792;DHT22;379;49.022;12.148;2023-08-01T15:44:20;19.90;95.00
792;DHT22;379;49.022;12.148;2023-08-01T15:46:47;20.00;94.50
792;DHT22;379;49.022;12.148;2023-08-01T15:49:13;20.10;94.60
792;DHT22;379;49.022;12.148;2023-08-01T15:51:41;20.20;94.00
792;DHT22;379;49.022;12.148;2023-08-01T15:54:08;20.40;93.80
792;DHT22;379;49.022;12.148;2023-08-01T15:56:37;20.50;93.60
792;DHT22;379;49.022;12.148;2023-08-01T15:59:03;20.70;92.90
792;DHT22;379;49.022;12.148;2023-08-01T16:01:30;20.80;92.60
792;DHT22;379;49.022;12.148;2023-08-01T16:03:57;20.80;92.10
792;DHT22;379;49.022;12.148;2023-08-01T16:06:23;20.90;92.00
792;DHT22;379;49.022;12.148;2023-08-01T16:08:51;20.90;92.30
792;DHT22;379;49.022;12.148;2023-08-01T16:11:18;20.80;91.10
792;DHT22;379;49.022;12.148;2023-08-01T16:13:45;20.70;91.50
792;DHT22;379;49.022;12.148;2023-08-01T16:16:12;20.60;91.50
792;DHT22;379;49.022;12.148;2023-08-01T16:18:38;20.50;91.70